sensor_id;sensor_type;location;lat;lon;timestamp;temperature;humidity
11501;DHT22;5807;51.606;7.624;2022-07-23T00:00:08;16.10;99.90
11501;DHT22;5807;51.606;7.624;2022-07-23T00:02:35;16.00;99.90
11501;DHT22;5807;51.606;7.624;2022-07-23T00:05:02;15.90;99.90
11501;DHT22;5807;51.606;7.624;2022-07-23T00:07:29;15.90;99.90
11501;DHT22;5807;51.606;7.624;2022-07-23T00:09:56;15.80;99.90
11501;DHT22;5807;51.606;7.624;2022-07-23T00:12:23;15.80;99.90
11501;DHT22;5807;51.606;7.624;2022-07-23T00:14:50;15.70;99.90
11501;DHT22;5807;51.606;7.624;2022-07-23T00:17:18;15.70;99.90
11501;DHT22;5807;51.606;7.624;2022-07-23T00:19:45;15.70;99.90
11501;DHT22;5807;51.606;7.624;2022-07-23T00:22:12;15.70;99.90
11501;DHT22;5807;51.606;7.624;2022-07-23T00:24:39;15.70;99.90
11501;DHT22;5807;51.606;7.624;2022-07-23T00:27:06;15.70;99.90
11501;DHT22;5807;51.606;7.624;2022-07-23T00:29:33;15.70;99.90
11501;DHT22;5807;51.606;7.624;2022-07-23T00:31:59;15.60;99.90
11501;DHT22;5807;51.606;7.624;2022-07-23T00:34:28;15.60;99.90
11501;DHT22;5807;51.606;7.624;2022-07-23T00:36:55;15.70;99.90
11501;DHT22;5807;51.606;7.624;2022-07-23T00:39:22;15.70;99.90
11501;DHT22;5807;51.606;7.624;2022-07-23T00:41:49;15.70;99.90
11501;DHT22;5807;51.606;7.624;2022-07-23T00:44:19;15.70;99.90
11501;DHT22;5807;51.606;7.624;2022-07-23T00:46:47;15.70;99.90
11501;DHT22;5807;51.606;7.624;2022-07-23T00:49:15;15.70;99.90
11501;DHT22;5807;51.606;7.624;2022-07-23T00:51:43;15.60;99.90
11501;DHT22;5807;51.606;7.624;2022-07-23T00:54:10;15.60;99.90
11501;DHT22;5807;51.606;7.624;2022-07-23T00:56:38;15.60;99.90
11501;DHT22;5807;51.606;7.624;2022-07-23T00:59:06;15.60;99.90
11501;DHT22;5807;51.606;7.624;2022-07-23T01:01:33;15.50;99.90
11501;DHT22;5807;51.606;7.624;2022-07-23T01:04:00;15.50;99.90
11501;DHT22;5807;51.606;7.624;2022-07-23T01:06:27;15.40;99.90
11501;DHT22;5807;51.606;7.624;2022-07-23T01:08:56;15.50;99.90
11501;DHT22;5807;51.606;7.624;2022-07-23T01:11:41;15.40;99.90
11501;DHT22;5807;51.606;7.624;2022-07-23T01:14:13;15.40;99.90
11501;DHT22;5807;51.606;7.624;2022-07-23T01:16:41;15.40;99.90
11501;DHT22;5807;51.606;7.624;2022-07-23T01:19:08;15.60;99.90
11501;DHT22;5807;51.606;7.624;2022-07-23T01:21:42;15.40;99.90
11501;DHT22;5807;51.606;7.624;2022-07-23T01:24:11;15.40;99.90
11501;DHT22;5807;51.606;7.624;2022-07-23T01:26:41;15.40;99.90
11501;DHT22;5807;51.606;7.624;2022-07-23T01:29:08;15.40;99.90
11501;DHT22;5807;51.606;7.624;2022-07-23T01:31:35;15.40;99.90
11501;DHT22;5807;51.606;7.624;2022-07-23T01:34:02;15.30;99.90
11501;DHT22;5807;51.606;7.624;2022-07-23T01:36:29;15.30;99.90
11501;DHT22;5807;51.606;7.624;2022-07-23T01:38:56;15.30;99.90
11501;DHT22;5807;51.606;7.624;2022-07-23T01:41:24;15.30;99.90
11501;DHT22;5807;51.606;7.624;2022-07-23T01:43:51;15.30;99.90
11501;DHT22;5807;51.606;7.624;2022-07-23T01:48:56;15.30;99.90
11501;DHT22;5807;51.606;7.624;2022-07-23T01:51:23;15.30;99.90
11501;DHT22;5807;51.606;7.624;2022-07-23T01:53:50;15.30;99.90
11501;DHT22;5807;51.606;7.624;2022-07-23T01:56:17;15.30;99.90
11501;DHT22;5807;51.606;7.624;2022-07-23T01:58:47;15.30;99.90
11501;DHT22;5807;51.606;7.624;2022-07-23T02:01:14;15.50;99.90
11501;DHT22;5807;51.606;7.624;2022-07-23T02:03:41;15.40;99.90
11501;DHT22;5807;51.606;7.624;2022-07-23T02:06:08;15.40;99.90
11501;DHT22;5807;51.606;7.624;2022-07-23T02:08:35;15.40;99.90
11501;DHT22;5807;51.606;7.624;2022-07-23T02:11:02;15.30;99.90
11501;DHT22;5807;51.606;7.624;2022-07-23T02:13:29;15.30;99.90
11501;DHT22;5807;51.606;7.624;2022-07-23T02:18:24;15.30;99.90
11501;DHT22;5807;51.606;7.624;2022-07-23T02:20:51;15.30;99.90
11501;DHT22;5807;51.606;7.624;2022-07-23T02:23:18;15.30;99.90
11501;DHT22;5807;51.606;7.624;2022-07-23T02:25:45;15.30;99.90
11501;DHT22;5807;51.606;7.624;2022-07-23T02:28:12;15.40;99.90
11501;DHT22;5807;51.606;7.624;2022-07-23T02:30:39;15.30;99.90
11501;DHT22;5807;51.606;7.624;2022-07-23T02:33:15;15.30;99.90
11501;DHT22;5807;51.606;7.624;2022-07-23T02:35:42;15.00;99.90
11501;DHT22;5807;51.606;7.624;2022-07-23T02:38:09;15.30;99.90
11501;DHT22;5807;51.606;7.624;2022-07-23T02:40:36;15.30;99.90
11501;DHT22;5807;51.606;7.624;2022-07-23T02:43:03;15.30;99.90
11501;DHT22;5807;51.606;7.624;2022-07-23T02:45:30;15.30;99.90
11501;DHT22;5807;51.606;7.624;2022-07-23T02:47:57;15.30;99.90
11501;DHT22;5807;51.606;7.624;2022-07-23T02:50:25;15.70;99.90
11501;DHT22;5807;51.606;7.624;2022-07-23T02:52:52;15.20;99.90
11501;DHT22;5807;51.606;7.624;2022-07-23T02:55:19;15.20;99.90
11501;DHT22;5807;51.606;7.624;2022-07-23T02:57:46;15.20;99.90
11501;DHT22;5807;51.606;7.624;2022-07-23T03:00:13;15.40;99.90
11501;DHT22;5807;51.606;7.624;2022-07-23T03:02:40;15.20;99.90
11501;DHT22;5807;51.606;7.624;2022-07-23T03:05:08;15.20;99.90
11501;DHT22;5807;51.606;7.624;2022-07-23T03:07:36;15.20;99.90
11501;DHT22;5807;51.606;7.624;2022-07-23T03:10:03;15.20;99.90
11501;DHT22;5807;51.606;7.624;2022-07-23T03:12:30;15.20;99.90
11501;DHT22;5807;51.606;7.624;2022-07-23T03:14:57;15.20;99.90
11501;DHT22;5807;51.606;7.624;2022-07-23T03:17:24;15.20;99.90
11501;DHT22;5807;51.606;7.624;2022-07-23T03:19:51;15.20;99.90
11501;DHT22;5807;51.606;7.624;2022-07-23T03:22:18;15.10;99.90
11501;DHT22;5807;51.606;7.624;2022-07-23T03:24:46;15.10;99.90
11501;DHT22;5807;51.606;7.624;2022-07-23T03:27:22;15.00;99.90
11501;DHT22;5807;51.606;7.624;2022-07-23T03:29:49;15.00;99.90
11501;DHT22;5807;51.606;7.624;2022-07-23T03:32:15;14.90;99.90
11501;DHT22;5807;51.606;7.624;2022-07-23T03:34:42;14.80;99.90
11501;DHT22;5807;51.606;7.624;2022-07-23T03:37:09;14.80;99.90
11501;DHT22;5807;51.606;7.624;2022-07-23T03:39:36;14.80;99.90
11501;DHT22;5807;51.606;7.624;2022-07-23T03:42:05;14.70;99.90
11501;DHT22;5807;51.606;7.624;2022-07-23T03:46:59;14.70;99.90
11501;DHT22;5807;51.606;7.624;2022-07-23T03:49:26;14.70;99.90
11501;DHT22;5807;51.606;7.624;2022-07-23T03:51:53;14.60;99.90
11501;DHT22;5807;51.606;7.624;2022-07-23T03:54:20;14.60;99.90
11501;DHT22;5807;51.606;7.624;2022-07-23T03:56:47;14.20;99.90
11501;DHT22;5807;51.606;7.624;2022-07-23T03:59:15;14.60;99.90
11501;DHT22;5807;51.606;7.624;2022-07-23T04:01:42;14.60;99.90
11501;DHT22;5807;51.606;7.624;2022-07-23T04:04:09;14.50;99.90
11501;DHT22;5807;51.606;7.624;2022-07-23T04:06:36;14.50;99.90
11501;DHT22;5807;51.606;7.624;2022-07-23T04:09:03;14.40;99.90
11501;DHT22;5807;51.606;7.624;2022-07-23T04:11:30;14.50;99.90
11501;DHT22;5807;51.606;7.624;2022-07-23T04:13:57;14.50;99.90
11501;DHT22;5807;51.606;7.624;2022-07-23T04:16:25;14.40;99.90
11501;DHT22;5807;51.606;7.624;2022-07-23T04:18:52;14.40;99.90
11501;DHT22;5807;51.606;7.624;2022-07-23T04:21:19;14.40;99.90
11501;DHT22;5807;51.606;7.624;2022-07-23T04:23:46;14.40;99.90
11501;DHT22;5807;51.606;7.624;2022-07-23T04:26:13;14.60;99.90
11501;DHT22;5807;51.606;7.624;2022-07-23T04:28:40;14.50;99.90
11501;DHT22;5807;51.606;7.624;2022-07-23T04:31:07;14.50;99.90
11501;DHT22;5807;51.606;7.624;2022-07-23T04:33:35;14.50;99.90
11501;DHT22;5807;51.606;7.624;2022-07-23T04:36:02;14.60;99.90
11501;DHT22;5807;51.606;7.624;2022-07-23T04:38:29;14.50;99.90
11501;DHT22;5807;51.606;7.624;2022-07-23T04:43:23;14.60;99.90
11501;DHT22;5807;51.606;7.624;2022-07-23T04:45:50;15.00;99.90
11501;DHT22;5807;51.606;7.624;2022-07-23T04:48:17;14.70;99.90
11501;DHT22;5807;51.606;7.624;2022-07-23T04:50:45;14.70;99.90
11501;DHT22;5807;51.606;7.624;2022-07-23T04:53:12;14.80;99.90
11501;DHT22;5807;51.606;7.624;2022-07-23T04:55:39;14.80;99.90
11501;DHT22;5807;51.606;7.624;2022-07-23T04:58:06;14.90;99.90
11501;DHT22;5807;51.606;7.624;2022-07-23T05:00:33;15.70;99.90
11501;DHT22;5807;51.606;7.624;2022-07-23T05:03:00;15.00;99.90
11501;DHT22;5807;51.606;7.624;2022-07-23T05:05:27;15.00;99.90
11501;DHT22;5807;51.606;7.624;2022-07-23T05:07:55;15.10;99.90
11501;DHT22;5807;51.606;7.624;2022-07-23T05:10:22;15.10;99.90
11501;DHT22;5807;51.606;7.624;2022-07-23T05:12:49;15.10;99.90
11501;DHT22;5807;51.606;7.624;2022-07-23T05:17:43;15.30;99.90
11501;DHT22;5807;51.606;7.624;2022-07-23T05:20:10;15.30;99.90
11501;DHT22;5807;51.606;7.624;2022-07-23T05:22:37;15.40;99.90
11501;DHT22;5807;51.606;7.624;2022-07-23T05:25:06;15.40;99.90
11501;DHT22;5807;51.606;7.624;2022-07-23T05:27:33;15.50;99.90
11501;DHT22;5807;51.606;7.624;2022-07-23T05:30:00;15.50;99.90
11501;DHT22;5807;51.606;7.624;2022-07-23T05:32:27;15.60;99.90
11501;DHT22;5807;51.606;7.624;2022-07-23T05:34:54;15.70;99.90
11501;DHT22;5807;51.606;7.624;2022-07-23T05:37:21;15.80;99.90
11501;DHT22;5807;51.606;7.624;2022-07-23T05:39:48;15.90;99.90
11501;DHT22;5807;51.606;7.624;2022-07-23T05:42:16;16.00;99.90
11501;DHT22;5807;51.606;7.624;2022-07-23T05:44:43;16.00;99.90
11501;DHT22;5807;51.606;7.624;2022-07-23T05:47:10;16.10;99.90
11501;DHT22;5807;51.606;7.624;2022-07-23T05:49:37;16.30;99.90
11501;DHT22;5807;51.606;7.624;2022-07-23T05:52:05;16.30;99.90
11501;DHT22;5807;51.606;7.624;2022-07-23T05:54:34;16.50;99.90
11501;DHT22;5807;51.606;7.624;2022-07-23T05:57:01;16.60;99.90
11501;DHT22;5807;51.606;7.624;2022-07-23T05:59:29;16.70;99.90
11501;DHT22;5807;51.606;7.624;2022-07-23T06:01:56;16.70;99.90
11501;DHT22;5807;51.606;7.624;2022-07-23T06:04:23;16.80;99.90
11501;DHT22;5807;51.606;7.624;2022-07-23T06:06:50;16.90;99.90
11501;DHT22;5807;51.606;7.624;2022-07-23T06:09:17;17.10;99.90
11501;DHT22;5807;51.606;7.624;2022-07-23T06:11:44;17.10;99.90
11501;DHT22;5807;51.606;7.624;2022-07-23T06:14:11;17.20;99.90
11501;DHT22;5807;51.606;7.624;2022-07-23T06:16:39;17.30;99.90
11501;DHT22;5807;51.606;7.624;2022-07-23T06:19:06;17.40;99.90
11501;DHT22;5807;51.606;7.624;2022-07-23T06:21:32;17.50;99.90
11501;DHT22;5807;51.606;7.624;2022-07-23T06:23:59;17.60;99.90
11501;DHT22;5807;51.606;7.624;2022-07-23T06:26:26;17.80;99.90
11501;DHT22;5807;51.606;7.624;2022-07-23T06:28:53;18.00;99.90
11501;DHT22;5807;51.606;7.624;2022-07-23T06:31:20;18.10;99.90
11501;DHT22;5807;51.606;7.624;2022-07-23T06:33:49;18.20;99.90
11501;DHT22;5807;51.606;7.624;2022-07-23T06:36:16;18.50;99.90
11501;DHT22;5807;51.606;7.624;2022-07-23T06:38:43;18.40;99.90
11501;DHT22;5807;51.606;7.624;2022-07-23T06:41:22;18.60;99.90
11501;DHT22;5807;51.606;7.624;2022-07-23T06:43:49;18.70;99.90
11501;DHT22;5807;51.606;7.624;2022-07-23T06:46:16;18.60;99.90
11501;DHT22;5807;51.606;7.624;2022-07-23T06:48:43;18.50;99.90
11501;DHT22;5807;51.606;7.624;2022-07-23T06:51:11;18.60;99.90
11501;DHT22;5807;51.606;7.624;2022-07-23T06:53:38;18.50;99.90
11501;DHT22;5807;51.606;7.624;2022-07-23T06:56:06;18.50;99.90
11501;DHT22;5807;51.606;7.624;2022-07-23T06:58:33;18.70;99.90
11501;DHT22;5807;51.606;7.624;2022-07-23T07:01:00;18.90;99.90
11501;DHT22;5807;51.606;7.624;2022-07-23T07:03:28;19.10;99.90
11501;DHT22;5807;51.606;7.624;2022-07-23T07:05:55;19.30;99.90
11501;DHT22;5807;51.606;7.624;2022-07-23T07:08:24;19.50;99.90
11501;DHT22;5807;51.606;7.624;2022-07-23T07:10:51;19.70;99.90
11501;DHT22;5807;51.606;7.624;2022-07-23T07:13:18;20.20;99.90
11501;DHT22;5807;51.606;7.624;2022-07-23T07:25:37;20.90;99.90
11501;DHT22;5807;51.606;7.624;2022-07-23T07:28:04;21.60;99.90
11501;DHT22;5807;51.606;7.624;2022-07-23T07:30:31;21.30;99.90
11501;DHT22;5807;51.606;7.624;2022-07-23T07:32:58;21.40;99.90
11501;DHT22;5807;51.606;7.624;2022-07-23T07:35:25;21.60;99.90
11501;DHT22;5807;51.606;7.624;2022-07-23T07:37:52;21.70;99.90
11501;DHT22;5807;51.606;7.624;2022-07-23T07:40:19;21.90;99.90
11501;DHT22;5807;51.606;7.624;2022-07-23T07:42:49;22.00;99.90
11501;DHT22;5807;51.606;7.624;2022-07-23T07:45:17;22.50;99.90
11501;DHT22;5807;51.606;7.624;2022-07-23T07:47:46;22.60;99.90
11501;DHT22;5807;51.606;7.624;2022-07-23T07:50:13;22.90;99.90
11501;DHT22;5807;51.606;7.624;2022-07-23T07:52:40;22.60;99.90
11501;DHT22;5807;51.606;7.624;2022-07-23T07:55:09;22.00;99.90
11501;DHT22;5807;51.606;7.624;2022-07-23T07:57:41;21.40;99.90
11501;DHT22;5807;51.606;7.624;2022-07-23T08:00:12;20.90;99.90
11501;DHT22;5807;51.606;7.624;2022-07-23T08:02:41;20.80;99.90
11501;DHT22;5807;51.606;7.624;2022-07-23T08:05:09;21.00;99.90
11501;DHT22;5807;51.606;7.624;2022-07-23T08:07:36;21.50;99.90
11501;DHT22;5807;51.606;7.624;2022-07-23T08:10:05;22.00;99.90
11501;DHT22;5807;51.606;7.624;2022-07-23T08:12:43;22.40;99.90
11501;DHT22;5807;51.606;7.624;2022-07-23T08:15:13;22.40;99.90
11501;DHT22;5807;51.606;7.624;2022-07-23T08:17:40;22.70;99.90
11501;DHT22;5807;51.606;7.624;2022-07-23T08:20:09;22.70;99.90
11501;DHT22;5807;51.606;7.624;2022-07-23T08:22:47;22.50;99.90
11501;DHT22;5807;51.606;7.624;2022-07-23T08:25:15;22.60;99.90
11501;DHT22;5807;51.606;7.624;2022-07-23T08:27:42;22.90;99.90
11501;DHT22;5807;51.606;7.624;2022-07-23T08:30:09;23.30;99.90
11501;DHT22;5807;51.606;7.624;2022-07-23T08:32:53;23.70;99.90
11501;DHT22;5807;51.606;7.624;2022-07-23T08:35:25;23.50;99.90
11501;DHT22;5807;51.606;7.624;2022-07-23T08:37:52;23.00;99.90
11501;DHT22;5807;51.606;7.624;2022-07-23T08:40:20;23.10;99.90
11501;DHT22;5807;51.606;7.624;2022-07-23T08:42:48;23.30;99.90
11501;DHT22;5807;51.606;7.624;2022-07-23T08:45:17;23.10;99.90
11501;DHT22;5807;51.606;7.624;2022-07-23T08:47:44;22.30;99.90
11501;DHT22;5807;51.606;7.624;2022-07-23T08:50:14;21.70;99.90
11501;DHT22;5807;51.606;7.624;2022-07-23T08:52:41;21.50;99.90
11501;DHT22;5807;51.606;7.624;2022-07-23T08:55:08;22.00;99.90
11501;DHT22;5807;51.606;7.624;2022-07-23T08:57:36;22.70;99.90
11501;DHT22;5807;51.606;7.624;2022-07-23T09:00:05;23.20;99.90
11501;DHT22;5807;51.606;7.624;2022-07-23T09:02:39;23.00;99.90
11501;DHT22;5807;51.606;7.624;2022-07-23T09:05:07;23.10;99.90
11501;DHT22;5807;51.606;7.624;2022-07-23T09:10:08;23.80;99.90
11501;DHT22;5807;51.606;7.624;2022-07-23T09:12:35;24.40;99.90
11501;DHT22;5807;51.606;7.624;2022-07-23T09:15:07;24.10;99.90
11501;DHT22;5807;51.606;7.624;2022-07-23T09:17:39;24.30;99.90
11501;DHT22;5807;51.606;7.624;2022-07-23T09:20:12;23.60;99.90
11501;DHT22;5807;51.606;7.624;2022-07-23T09:22:44;22.90;99.90
11501;DHT22;5807;51.606;7.624;2022-07-23T09:25:14;22.60;99.90
11501;DHT22;5807;51.606;7.624;2022-07-23T09:27:50;23.00;99.90
11501;DHT22;5807;51.606;7.624;2022-07-23T09:30:18;23.60;99.90
11501;DHT22;5807;51.606;7.624;2022-07-23T09:33:03;24.20;99.90
11501;DHT22;5807;51.606;7.624;2022-07-23T09:35:44;24.50;99.90
11501;DHT22;5807;51.606;7.624;2022-07-23T09:38:28;24.20;99.90
11501;DHT22;5807;51.606;7.624;2022-07-23T09:41:06;23.50;99.90
11501;DHT22;5807;51.606;7.624;2022-07-23T09:43:33;23.40;99.90
11501;DHT22;5807;51.606;7.624;2022-07-23T09:46:20;23.40;99.90
11501;DHT22;5807;51.606;7.624;2022-07-23T09:48:49;23.70;99.90
11501;DHT22;5807;51.606;7.624;2022-07-23T09:51:17;24.10;99.90
11501;DHT22;5807;51.606;7.624;2022-07-23T09:53:47;24.30;99.90
11501;DHT22;5807;51.606;7.624;2022-07-23T09:56:14;24.60;99.90
11501;DHT22;5807;51.606;7.624;2022-07-23T09:58:42;24.50;99.90
11501;DHT22;5807;51.606;7.624;2022-07-23T10:01:14;24.60;99.90
11501;DHT22;5807;51.606;7.624;2022-07-23T10:03:42;24.60;99.90
11501;DHT22;5807;51.606;7.624;2022-07-23T10:06:09;24.80;99.90
11501;DHT22;5807;51.606;7.624;2022-07-23T10:08:40;25.10;98.70
11501;DHT22;5807;51.606;7.624;2022-07-23T10:11:10;25.30;97.60
11501;DHT22;5807;51.606;7.624;2022-07-23T10:13:38;25.40;98.20
11501;DHT22;5807;51.606;7.624;2022-07-23T10:19:27;25.90;97.10
11501;DHT22;5807;51.606;7.624;2022-07-23T10:21:57;26.00;96.50
11501;DHT22;5807;51.606;7.624;2022-07-23T10:24:47;26.10;96.10
11501;DHT22;5807;51.606;7.624;2022-07-23T10:27:39;26.30;94.60
11501;DHT22;5807;51.606;7.624;2022-07-23T10:30:12;26.30;94.60
11501;DHT22;5807;51.606;7.624;2022-07-23T10:32:49;26.40;94.30
11501;DHT22;5807;51.606;7.624;2022-07-23T10:35:26;26.60;93.90
11501;DHT22;5807;51.606;7.624;2022-07-23T10:38:00;26.50;92.30
11501;DHT22;5807;51.606;7.624;2022-07-23T10:40:31;26.30;92.40
11501;DHT22;5807;51.606;7.624;2022-07-23T10:43:00;26.20;92.50
11501;DHT22;5807;51.606;7.624;2022-07-23T10:45:32;26.40;93.60
11501;DHT22;5807;51.606;7.624;2022-07-23T10:48:13;26.60;94.00
11501;DHT22;5807;51.606;7.624;2022-07-23T10:50:41;26.80;90.40
11501;DHT22;5807;51.606;7.624;2022-07-23T10:53:14;27.00;92.70
11501;DHT22;5807;51.606;7.624;2022-07-23T10:55:48;27.20;92.00
11501;DHT22;5807;51.606;7.624;2022-07-23T10:58:49;27.30;90.60
11501;DHT22;5807;51.606;7.624;2022-07-23T11:01:32;27.20;90.50
11501;DHT22;5807;51.606;7.624;2022-07-23T11:04:01;26.90;90.70
11501;DHT22;5807;51.606;7.624;2022-07-23T11:09:44;27.00;89.80
11501;DHT22;5807;51.606;7.624;2022-07-23T11:12:32;27.10;90.00
11501;DHT22;5807;51.606;7.624;2022-07-23T11:15:04;27.10;85.00
11501;DHT22;5807;51.606;7.624;2022-07-23T11:17:34;27.10;88.90
11501;DHT22;5807;51.606;7.624;2022-07-23T11:20:16;27.30;93.10
11501;DHT22;5807;51.606;7.624;2022-07-23T11:22:48;27.70;89.80
11501;DHT22;5807;51.606;7.624;2022-07-23T11:25:33;28.00;87.20
11501;DHT22;5807;51.606;7.624;2022-07-23T11:28:15;27.90;85.60
11501;DHT22;5807;51.606;7.624;2022-07-23T11:30:49;28.10;85.50
11501;DHT22;5807;51.606;7.624;2022-07-23T11:33:18;28.00;87.70
11501;DHT22;5807;51.606;7.624;2022-07-23T11:35:46;28.00;86.60
11501;DHT22;5807;51.606;7.624;2022-07-23T11:38:16;27.80;86.30
11501;DHT22;5807;51.606;7.624;2022-07-23T11:40:45;27.90;88.40
11501;DHT22;5807;51.606;7.624;2022-07-23T11:43:21;27.70;81.10
11501;DHT22;5807;51.606;7.624;2022-07-23T11:45:52;27.80;82.90
11501;DHT22;5807;51.606;7.624;2022-07-23T11:48:22;27.90;83.70
11501;DHT22;5807;51.606;7.624;2022-07-23T11:50:49;28.00;85.00
11501;DHT22;5807;51.606;7.624;2022-07-23T11:53:22;28.10;86.80
11501;DHT22;5807;51.606;7.624;2022-07-23T11:58:16;27.90;78.10
11501;DHT22;5807;51.606;7.624;2022-07-23T12:00:43;27.80;80.60
11501;DHT22;5807;51.606;7.624;2022-07-23T12:03:12;27.80;78.80
11501;DHT22;5807;51.606;7.624;2022-07-23T12:05:39;28.10;81.90
11501;DHT22;5807;51.606;7.624;2022-07-23T12:08:23;28.00;80.50
11501;DHT22;5807;51.606;7.624;2022-07-23T12:10:50;28.30;80.10
11501;DHT22;5807;51.606;7.624;2022-07-23T12:13:18;28.60;81.30
11501;DHT22;5807;51.606;7.624;2022-07-23T12:15:47;28.80;78.60
11501;DHT22;5807;51.606;7.624;2022-07-23T12:18:17;28.40;78.40
11501;DHT22;5807;51.606;7.624;2022-07-23T12:20:47;28.50;77.90
11501;DHT22;5807;51.606;7.624;2022-07-23T12:23:18;28.40;80.10
11501;DHT22;5807;51.606;7.624;2022-07-23T12:25:47;28.60;77.30
11501;DHT22;5807;51.606;7.624;2022-07-23T12:28:28;28.80;73.70
11501;DHT22;5807;51.606;7.624;2022-07-23T12:30:57;28.70;75.30
11501;DHT22;5807;51.606;7.624;2022-07-23T12:33:28;28.60;79.10
11501;DHT22;5807;51.606;7.624;2022-07-23T12:35:56;29.10;76.10
11501;DHT22;5807;51.606;7.624;2022-07-23T12:40:54;29.30;75.30
11501;DHT22;5807;51.606;7.624;2022-07-23T12:43:23;29.20;77.00
11501;DHT22;5807;51.606;7.624;2022-07-23T12:45:52;29.40;76.10
11501;DHT22;5807;51.606;7.624;2022-07-23T12:48:22;29.50;75.20
11501;DHT22;5807;51.606;7.624;2022-07-23T12:50:56;29.50;72.80
11501;DHT22;5807;51.606;7.624;2022-07-23T12:53:25;29.40;72.10
11501;DHT22;5807;51.606;7.624;2022-07-23T12:56:01;29.10;73.50
11501;DHT22;5807;51.606;7.624;2022-07-23T12:58:40;29.00;73.80
11501;DHT22;5807;51.606;7.624;2022-07-23T13:01:08;28.80;71.60
11501;DHT22;5807;51.606;7.624;2022-07-23T13:03:38;28.50;74.70
11501;DHT22;5807;51.606;7.624;2022-07-23T13:06:08;28.50;75.30
11501;DHT22;5807;51.606;7.624;2022-07-23T13:08:36;28.30;75.10
11501;DHT22;5807;51.606;7.624;2022-07-23T13:11:05;28.20;76.60
11501;DHT22;5807;51.606;7.624;2022-07-23T13:13:33;28.60;75.40
11501;DHT22;5807;51.606;7.624;2022-07-23T13:16:01;28.80;76.00
11501;DHT22;5807;51.606;7.624;2022-07-23T13:18:29;29.00;73.40
11501;DHT22;5807;51.606;7.624;2022-07-23T13:20:57;28.90;75.40
11501;DHT22;5807;51.606;7.624;2022-07-23T13:23:25;29.00;75.10
11501;DHT22;5807;51.606;7.624;2022-07-23T13:25:52;29.00;75.20
11501;DHT22;5807;51.606;7.624;2022-07-23T13:28:21;28.80;71.80
11501;DHT22;5807;51.606;7.624;2022-07-23T13:30:49;28.50;75.10
11501;DHT22;5807;51.606;7.624;2022-07-23T13:33:17;27.90;76.30
11501;DHT22;5807;51.606;7.624;2022-07-23T13:35:45;27.10;76.10
11501;DHT22;5807;51.606;7.624;2022-07-23T13:38:12;26.30;77.70
11501;DHT22;5807;51.606;7.624;2022-07-23T13:40:46;26.20;79.40
11501;DHT22;5807;51.606;7.624;2022-07-23T13:43:17;26.70;80.10
11501;DHT22;5807;51.606;7.624;2022-07-23T13:45:48;27.10;78.30
11501;DHT22;5807;51.606;7.624;2022-07-23T13:48:25;27.20;77.80
11501;DHT22;5807;51.606;7.624;2022-07-23T13:50:57;27.60;74.70
11501;DHT22;5807;51.606;7.624;2022-07-23T13:53:24;27.80;74.60
11501;DHT22;5807;51.606;7.624;2022-07-23T13:55:53;27.90;74.50
11501;DHT22;5807;51.606;7.624;2022-07-23T13:58:21;28.10;75.50
11501;DHT22;5807;51.606;7.624;2022-07-23T14:03:59;28.50;77.90
11501;DHT22;5807;51.606;7.624;2022-07-23T14:06:25;28.90;71.90
11501;DHT22;5807;51.606;7.624;2022-07-23T14:08:52;29.20;74.10
11501;DHT22;5807;51.606;7.624;2022-07-23T14:11:20;29.20;69.70
11501;DHT22;5807;51.606;7.624;2022-07-23T14:13:47;29.30;72.80
11501;DHT22;5807;51.606;7.624;2022-07-23T14:16:14;29.20;69.80
11501;DHT22;5807;51.606;7.624;2022-07-23T14:18:43;29.10;69.60
11501;DHT22;5807;51.606;7.624;2022-07-23T14:21:09;29.10;70.90
11501;DHT22;5807;51.606;7.624;2022-07-23T14:23:36;29.20;70.10
11501;DHT22;5807;51.606;7.624;2022-07-23T14:26:06;29.40;72.00
11501;DHT22;5807;51.606;7.624;2022-07-23T14:28:35;29.50;73.00
11501;DHT22;5807;51.606;7.624;2022-07-23T14:31:02;29.40;70.70
11501;DHT22;5807;51.606;7.624;2022-07-23T14:33:29;29.30;69.80
11501;DHT22;5807;51.606;7.624;2022-07-23T14:35:56;29.20;69.90
11501;DHT22;5807;51.606;7.624;2022-07-23T14:41:32;29.00;69.80
11501;DHT22;5807;51.606;7.624;2022-07-23T14:44:01;29.10;73.10
11501;DHT22;5807;51.606;7.624;2022-07-23T14:46:27;29.00;69.70
11501;DHT22;5807;51.606;7.624;2022-07-23T14:48:54;29.00;69.10
11501;DHT22;5807;51.606;7.624;2022-07-23T14:51:21;29.10;71.00
11501;DHT22;5807;51.606;7.624;2022-07-23T14:53:48;29.10;67.70
11501;DHT22;5807;51.606;7.624;2022-07-23T14:56:15;29.00;67.50
11501;DHT22;5807;51.606;7.624;2022-07-23T14:58:42;29.00;70.80
11501;DHT22;5807;51.606;7.624;2022-07-23T15:01:11;28.90;68.90
11501;DHT22;5807;51.606;7.624;2022-07-23T15:03:38;28.90;68.20
11501;DHT22;5807;51.606;7.624;2022-07-23T15:06:05;28.80;70.10
11501;DHT22;5807;51.606;7.624;2022-07-23T15:08:33;28.80;68.20
11501;DHT22;5807;51.606;7.624;2022-07-23T15:11:00;28.80;70.00
11501;DHT22;5807;51.606;7.624;2022-07-23T15:13:27;28.80;68.20
11501;DHT22;5807;51.606;7.624;2022-07-23T15:15:54;28.70;68.50
11501;DHT22;5807;51.606;7.624;2022-07-23T15:18:22;28.60;69.90
11501;DHT22;5807;51.606;7.624;2022-07-23T15:20:49;28.50;68.90
11501;DHT22;5807;51.606;7.624;2022-07-23T15:23:16;28.50;69.50
11501;DHT22;5807;51.606;7.624;2022-07-23T15:25:43;28.40;68.40
11501;DHT22;5807;51.606;7.624;2022-07-23T15:28:10;28.30;69.30
11501;DHT22;5807;51.606;7.624;2022-07-23T15:30:36;28.30;68.70
11501;DHT22;5807;51.606;7.624;2022-07-23T15:33:04;28.30;68.20
11501;DHT22;5807;51.606;7.624;2022-07-23T15:35:33;28.10;68.50
11501;DHT22;5807;51.606;7.624;2022-07-23T15:38:00;28.10;68.90
11501;DHT22;5807;51.606;7.624;2022-07-23T15:40:27;28.20;68.90
11501;DHT22;5807;51.606;7.624;2022-07-23T15:42:54;28.20;72.30
11501;DHT22;5807;51.606;7.624;2022-07-23T15:45:21;28.30;70.10
11501;DHT22;5807;51.606;7.624;2022-07-23T15:47:48;28.30;69.70
11501;DHT22;5807;51.606;7.624;2022-07-23T15:50:15;28.40;70.60
11501;DHT22;5807;51.606;7.624;2022-07-23T15:52:44;28.40;69.90
11501;DHT22;5807;51.606;7.624;2022-07-23T15:55:11;28.20;67.90
11501;DHT22;5807;51.606;7.624;2022-07-23T15:57:38;27.90;71.60
11501;DHT22;5807;51.606;7.624;2022-07-23T16:00:06;27.90;70.90
11501;DHT22;5807;51.606;7.624;2022-07-23T16:02:34;27.80;71.00
11501;DHT22;5807;51.606;7.624;2022-07-23T16:05:01;27.70;69.40
11501;DHT22;5807;51.606;7.624;2022-07-23T16:07:47;27.60;69.40
11501;DHT22;5807;51.606;7.624;2022-07-23T16:10:14;27.70;70.10
11501;DHT22;5807;51.606;7.624;2022-07-23T16:12:41;27.60;69.00
11501;DHT22;5807;51.606;7.624;2022-07-23T16:15:09;27.50;70.10
11501;DHT22;5807;51.606;7.624;2022-07-23T16:20:04;27.60;69.80
11501;DHT22;5807;51.606;7.624;2022-07-23T16:22:34;27.50;70.40
11501;DHT22;5807;51.606;7.624;2022-07-23T16:25:03;27.40;71.40
11501;DHT22;5807;51.606;7.624;2022-07-23T16:27:31;27.30;70.00
11501;DHT22;5807;51.606;7.624;2022-07-23T16:32:25;27.00;70.90
11501;DHT22;5807;51.606;7.624;2022-07-23T16:37:20;26.90;70.40
11501;DHT22;5807;51.606;7.624;2022-07-23T16:39:47;27.00;71.30
11501;DHT22;5807;51.606;7.624;2022-07-23T16:42:15;27.00;72.30
11501;DHT22;5807;51.606;7.624;2022-07-23T16:44:42;27.20;74.00